createdAt,value
2023-07-30T00:02:23.404Z,23.37
2023-07-30T00:04:50.678Z,23.89
2023-07-30T00:07:17.728Z,24.48
2023-07-30T00:09:44.746Z,24.53
2023-07-30T00:12:11.769Z,24.33
2023-07-30T00:14:38.884Z,24.06
2023-07-30T00:17:06.026Z,23.78
2023-07-30T00:19:33.162Z,23.45
2023-07-30T00:22:00.350Z,23.85
2023-07-30T00:24:27.379Z,24.35
2023-07-30T00:26:54.488Z,24.35
2023-07-30T00:29:21.480Z,24.14
2023-07-30T00:31:48.561Z,23.85
2023-07-30T00:34:15.626Z,23.56
2023-07-30T00:36:42.799Z,23.27
2023-07-30T00:39:12.455Z,23.71
2023-07-30T00:41:40.044Z,24.23
2023-07-30T00:44:07.431Z,24.27
2023-07-30T00:46:36.132Z,24.04
2023-07-30T00:49:04.260Z,23.74
2023-07-30T00:51:32.722Z,23.48
2023-07-30T00:53:59.859Z,23.18
2023-07-30T00:56:27.728Z,23.65
2023-07-30T00:58:54.683Z,24.20
2023-07-30T01:01:22.222Z,24.24
2023-07-30T01:03:49.753Z,24.02
2023-07-30T01:06:16.970Z,23.70
2023-07-30T01:08:44.014Z,23.41
2023-07-30T01:11:11.118Z,23.11
2023-07-30T01:13:38.386Z,23.55
2023-07-30T01:16:05.954Z,24.08
2023-07-30T01:18:33.156Z,24.04
2023-07-30T01:21:00.479Z,23.72
2023-07-30T01:23:27.602Z,23.38
2023-07-30T01:26:01.075Z,23.10
2023-07-30T01:28:28.175Z,22.83
2023-07-30T01:30:56.099Z,23.38
2023-07-30T01:33:23.968Z,23.96
2023-07-30T01:35:51.129Z,23.97
2023-07-30T01:38:18.236Z,23.77
2023-07-30T01:40:45.439Z,23.50
2023-07-30T01:43:12.603Z,23.23
2023-07-30T01:45:41.158Z,22.95
2023-07-30T01:48:08.403Z,23.36
2023-07-30T01:50:35.519Z,23.89
2023-07-30T01:53:02.781Z,23.90
2023-07-30T01:55:30.078Z,23.69
2023-07-30T01:57:57.121Z,23.43
2023-07-30T02:00:24.299Z,23.19
2023-07-30T02:02:51.502Z,22.90
2023-07-30T02:05:18.569Z,23.34
2023-07-30T02:07:46.011Z,23.84
2023-07-30T02:10:12.961Z,23.85
2023-07-30T02:12:39.997Z,23.62
2023-07-30T02:15:07.682Z,23.34
2023-07-30T02:17:34.853Z,23.03
2023-07-30T02:20:02.068Z,22.72
2023-07-30T02:22:29.460Z,23.14
2023-07-30T02:24:58.388Z,23.65
2023-07-30T02:27:25.654Z,23.63
2023-07-30T02:29:52.699Z,23.42
2023-07-30T02:32:19.906Z,23.14
2023-07-30T02:34:47.005Z,22.86
2023-07-30T02:37:14.294Z,22.52
2023-07-30T02:39:42.242Z,22.88
2023-07-30T02:42:09.422Z,23.36
2023-07-30T02:44:36.517Z,23.36
2023-07-30T02:47:03.579Z,23.10
2023-07-30T02:49:30.764Z,22.76
2023-07-30T02:51:58.045Z,22.43
2023-07-30T02:54:25.130Z,22.12
2023-07-30T02:56:52.075Z,22.58
2023-07-30T02:59:19.104Z,23.14
2023-07-30T03:01:46.205Z,23.15
2023-07-30T03:04:13.406Z,22.93
2023-07-30T03:06:40.772Z,22.61
2023-07-30T03:09:08.646Z,22.31
2023-07-30T03:11:35.916Z,22.00
2023-07-30T03:14:03.287Z,22.44
2023-07-30T03:16:30.906Z,22.99
2023-07-30T03:18:58.325Z,23.04
2023-07-30T03:21:25.474Z,22.85
2023-07-30T03:23:52.630Z,22.58
2023-07-30T03:26:20.252Z,22.34
2023-07-30T03:28:47.451Z,22.06
2023-07-30T03:31:14.612Z,22.52
2023-07-30T03:33:47.156Z,23.08
2023-07-30T03:36:17.195Z,23.12
2023-07-30T03:38:44.334Z,22.90
2023-07-30T03:41:12.183Z,22.63
2023-07-30T03:43:39.251Z,22.40
2023-07-30T03:46:06.377Z,22.19
2023-07-30T03:48:33.564Z,22.73
2023-07-30T03:51:00.824Z,23.35
2023-07-30T03:53:27.891Z,23.46
2023-07-30T03:55:55.303Z,23.32
2023-07-30T03:58:22.352Z,23.10
2023-07-30T04:00:49.443Z,22.91
2023-07-30T04:03:16.592Z,22.71
2023-07-30T04:05:43.708Z,23.27
2023-07-30T04:08:10.941Z,23.87
2023-07-30T04:10:38.442Z,23.89
2023-07-30T04:13:05.674Z,23.72
2023-07-30T04:15:33.022Z,23.53
2023-07-30T04:18:00.116Z,23.34
2023-07-30T04:20:27.304Z,23.13
2023-07-30T04:22:55.729Z,23.61
2023-07-30T04:25:22.771Z,24.19
2023-07-30T04:27:49.855Z,24.26
2023-07-30T04:30:17.081Z,24.09
2023-07-30T04:32:44.138Z,23.86
2023-07-30T04:35:11.351Z,23.63
2023-07-30T04:37:40.048Z,23.40
2023-07-30T04:40:08.088Z,23.92
2023-07-30T04:42:35.649Z,24.45
2023-07-30T04:45:04.358Z,24.48
2023-07-30T04:47:34.224Z,24.26
2023-07-30T04:50:01.415Z,24.05
2023-07-30T04:52:28.467Z,23.83
2023-07-30T04:54:55.800Z,23.65
2023-07-30T04:57:22.950Z,24.20
2023-07-30T04:59:50.108Z,24.77
2023-07-30T05:02:17.219Z,24.82
2023-07-30T05:04:44.326Z,24.63
2023-07-30T05:07:11.381Z,24.37
2023-07-30T05:09:38.405Z,24.13
2023-07-30T05:12:05.800Z,23.87
2023-07-30T05:14:32.910Z,24.30
2023-07-30T05:16:59.962Z,24.84
2023-07-30T05:19:27.031Z,24.91
2023-07-30T05:21:54.127Z,24.73
2023-07-30T05:24:21.382Z,24.46
2023-07-30T05:26:48.497Z,24.19
2023-07-30T05:29:15.581Z,23.93
2023-07-30T05:31:42.696Z,24.44
2023-07-30T05:34:09.727Z,25.06
2023-07-30T05:36:36.751Z,25.16
2023-07-30T05:39:04.111Z,24.98
2023-07-30T05:41:31.551Z,24.73
2023-07-30T05:43:58.604Z,24.52
2023-07-30T05:46:25.674Z,24.34
2023-07-30T05:48:52.754Z,24.19
2023-07-30T05:51:19.682Z,24.74
2023-07-30T05:53:46.772Z,25.37
2023-07-30T05:56:15.379Z,25.45
2023-07-30T05:58:42.427Z,25.28
2023-07-30T06:01:09.601Z,25.09
2023-07-30T06:03:36.754Z,24.95
2023-07-30T06:06:03.970Z,24.78
2023-07-30T06:08:31.444Z,25.37
2023-07-30T06:11:02.964Z,26.07
2023-07-30T06:13:30.430Z,26.24
2023-07-30T06:15:57.718Z,26.18
2023-07-30T06:18:24.946Z,26.02
2023-07-30T06:20:51.973Z,25.87
2023-07-30T06:23:19.054Z,25.81
2023-07-30T06:25:46.143Z,26.62
2023-07-30T06:28:13.214Z,27.38
2023-07-30T06:30:40.875Z,27.60
2023-07-30T06:33:07.976Z,27.53
2023-07-30T06:35:35.371Z,27.32
2023-07-30T06:38:02.382Z,27.06
2023-07-30T06:40:29.790Z,26.74
2023-07-30T06:42:56.836Z,26.48
2023-07-30T06:45:23.875Z,26.12
2023-07-30T06:47:51.462Z,26.65
2023-07-30T06:50:18.626Z,27.26
2023-07-30T06:52:45.666Z,27.32
2023-07-30T06:55:12.720Z,27.09
2023-07-30T06:57:40.242Z,26.88
2023-07-30T07:00:07.960Z,26.76
2023-07-30T07:02:35.419Z,26.72
2023-07-30T07:05:02.456Z,26.72
2023-07-30T07:07:30.149Z,27.32
2023-07-30T07:09:57.138Z,27.96
2023-07-30T07:12:24.217Z,28.11
2023-07-30T07:14:51.301Z,27.88
2023-07-30T07:17:18.307Z,27.60
2023-07-30T07:19:45.609Z,27.36
2023-07-30T07:22:12.595Z,27.15
2023-07-30T07:24:39.754Z,26.90
2023-07-30T07:27:07.008Z,26.77
2023-07-30T07:29:34.136Z,26.65
2023-07-30T07:32:01.362Z,26.59
2023-07-30T07:34:28.863Z,27.40
2023-07-30T07:36:56.132Z,28.34
2023-07-30T07:39:23.134Z,28.90
2023-07-30T07:41:50.152Z,28.97
2023-07-30T07:44:17.245Z,29.01
2023-07-30T07:46:44.213Z,29.32
2023-07-30T07:49:11.403Z,29.48
2023-07-30T07:51:38.636Z,29.62
2023-07-30T07:54:05.836Z,29.61
2023-07-30T07:56:32.984Z,29.45
2023-07-30T07:59:00.415Z,29.11
2023-07-30T08:01:27.632Z,28.78
2023-07-30T08:03:54.792Z,28.57
2023-07-30T08:06:21.976Z,28.21
2023-07-30T08:08:49.036Z,27.99
2023-07-30T08:11:16.004Z,28.02
2023-07-30T08:13:43.081Z,28.24
2023-07-30T08:16:10.109Z,28.48
2023-07-30T08:18:37.129Z,28.84
2023-07-30T08:21:04.162Z,28.93
2023-07-30T08:23:31.208Z,29.03
2023-07-30T08:25:58.351Z,29.24
2023-07-30T08:28:25.597Z,29.43
2023-07-30T08:30:52.655Z,29.64
2023-07-30T08:33:19.874Z,29.76
2023-07-30T08:35:46.973Z,29.92
2023-07-30T08:38:14.108Z,29.97
2023-07-30T08:40:41.238Z,29.98
2023-07-30T08:43:08.326Z,30.16
2023-07-30T08:45:35.448Z,30.33
2023-07-30T08:48:02.540Z,30.60
2023-07-30T08:50:29.935Z,30.78
2023-07-30T08:52:57.096Z,30.75
2023-07-30T08:55:24.563Z,30.58
2023-07-30T08:57:52.034Z,30.57
2023-07-30T09:00:19.046Z,30.58
2023-07-30T09:02:49.913Z,30.74
2023-07-30T09:05:17.089Z,30.88
2023-07-30T09:07:44.204Z,31.01
2023-07-30T09:10:11.265Z,31.14
2023-07-30T09:12:38.516Z,31.17
2023-07-30T09:15:07.003Z,31.16
2023-07-30T09:17:34.793Z,31.06
2023-07-30T09:20:05.334Z,31.03
2023-07-30T09:22:42.923Z,31.06
2023-07-30T09:25:10.760Z,31.12
2023-07-30T09:27:37.885Z,31.15
2023-07-30T09:30:07.093Z,31.11
2023-07-30T09:32:35.531Z,31.20
2023-07-30T09:35:07.865Z,31.20
2023-07-30T09:37:39.382Z,31.15
2023-07-30T09:40:14.046Z,31.05
2023-07-30T09:42:45.567Z,31.02
2023-07-30T09:45:25.866Z,31.13
2023-07-30T09:47:53.445Z,31.21
2023-07-30T09:50:20.622Z,31.22
2023-07-30T09:52:47.691Z,31.27
2023-07-30T09:55:14.876Z,31.40
2023-07-30T09:57:41.965Z,31.65
2023-07-30T10:00:12.343Z,31.57
2023-07-30T10:02:41.990Z,31.29
2023-07-30T10:05:12.130Z,30.91
2023-07-30T10:07:41.819Z,30.92
2023-07-30T10:10:09.275Z,31.02
2023-07-30T10:12:36.373Z,30.92
2023-07-30T10:15:03.655Z,30.83
2023-07-30T10:17:31.153Z,30.69
2023-07-30T10:19:58.217Z,30.45
2023-07-30T10:22:26.392Z,30.33
2023-07-30T10:24:57.907Z,30.31
2023-07-30T10:27:26.257Z,30.23
2023-07-30T10:30:15.695Z,30.14
2023-07-30T10:33:00.403Z,30.25
2023-07-30T10:35:48.591Z,30.46
2023-07-30T10:38:20.277Z,30.53
2023-07-30T10:41:12.698Z,30.51
2023-07-30T10:43:43.174Z,30.51
2023-07-30T10:46:11.435Z,30.48
2023-07-30T10:48:42.568Z,30.38
2023-07-30T10:51:12.108Z,30.49
2023-07-30T10:53:40.542Z,30.51
2023-07-30T10:56:08.084Z,30.62
2023-07-30T10:58:35.945Z,30.51
2023-07-30T11:01:07.100Z,30.34
2023-07-30T11:03:34.426Z,30.28
2023-07-30T11:06:02.137Z,30.24
2023-07-30T11:08:39.816Z,30.30
2023-07-30T11:11:08.047Z,30.43
2023-07-30T11:13:44.129Z,30.46
2023-07-30T11:16:11.573Z,30.46
2023-07-30T11:18:39.256Z,30.57
2023-07-30T11:21:10.598Z,30.69
2023-07-30T11:23:38.494Z,30.61
2023-07-30T11:26:07.741Z,30.42
2023-07-30T11:28:38.917Z,30.29
2023-07-30T11:31:27.910Z,30.24
2023-07-30T11:33:55.044Z,30.14
2023-07-30T11:36:23.572Z,30.02
2023-07-30T11:38:50.734Z,29.88
2023-07-30T11:41:17.826Z,29.75
2023-07-30T11:43:45.071Z,29.77
2023-07-30T11:46:14.214Z,29.81
2023-07-30T11:48:42.312Z,29.79
2023-07-30T11:51:29.100Z,29.89
2023-07-30T11:54:01.507Z,30.06
2023-07-30T11:56:32.318Z,30.23
2023-07-30T11:59:04.786Z,30.28
2023-07-30T12:01:35.815Z,30.28
2023-07-30T12:04:04.652Z,30.22
2023-07-30T12:06:48.194Z,30.26
2023-07-30T12:09:20.628Z,30.21
2023-07-30T12:11:51.703Z,30.18
2023-07-30T12:14:19.634Z,30.20
2023-07-30T12:16:46.964Z,30.26
2023-07-30T12:19:14.111Z,30.28
2023-07-30T12:21:41.288Z,30.18
2023-07-30T12:24:08.464Z,30.12
2023-07-30T12:26:35.614Z,30.20
2023-07-30T12:29:02.893Z,30.21
2023-07-30T12:31:30.171Z,30.15
2023-07-30T12:33:57.342Z,30.10
2023-07-30T12:36:24.514Z,30.10
2023-07-30T12:38:54.554Z,30.05
2023-07-30T12:41:26.941Z,30.03
2023-07-30T12:43:54.899Z,30.04
2023-07-30T12:46:22.614Z,29.87
2023-07-30T12:48:49.889Z,29.63
2023-07-30T12:51:16.948Z,29.56
2023-07-30T12:53:43.984Z,29.45
2023-07-30T12:56:11.216Z,29.36
2023-07-30T12:58:38.611Z,29.32
2023-07-30T13:01:05.910Z,29.26
2023-07-30T13:03:33.220Z,29.24
2023-07-30T13:06:00.549Z,29.17
2023-07-30T13:08:27.788Z,29.07
2023-07-30T13:10:54.957Z,29.03
2023-07-30T13:13:22.023Z,28.96
2023-07-30T13:15:49.229Z,28.93
2023-07-30T13:18:16.344Z,28.90
2023-07-30T13:20:43.452Z,28.86
2023-07-30T13:23:10.570Z,28.84
2023-07-30T13:25:37.769Z,28.81
2023-07-30T13:28:04.935Z,28.85
2023-07-30T13:30:32.050Z,28.92
2023-07-30T13:32:59.110Z,29.01
2023-07-30T13:35:26.335Z,29.10
2023-07-30T13:37:53.310Z,29.14
2023-07-30T13:40:20.555Z,29.22
2023-07-30T13:42:47.605Z,29.26
2023-07-30T13:45:14.865Z,29.24
2023-07-30T13:47:43.067Z,29.10
2023-07-30T13:50:10.767Z,28.94
2023-07-30T13:52:37.851Z,28.93
2023-07-30T13:55:05.382Z,28.90
2023-07-30T13:57:34.475Z,28.81
2023-07-30T14:00:03.041Z,28.73
2023-07-30T14:02:32.362Z,28.67
2023-07-30T14:04:59.629Z,28.63
2023-07-30T14:07:26.992Z,28.58
2023-07-30T14:09:54.111Z,28.60
2023-07-30T14:12:21.150Z,28.56
2023-07-30T14:14:48.269Z,28.49
2023-07-30T14:17:17.032Z,28.43
2023-07-30T14:19:44.356Z,28.39
2023-07-30T14:22:11.313Z,28.32
2023-07-30T14:24:38.928Z,28.29
2023-07-30T14:27:06.395Z,28.25
2023-07-30T14:29:34.128Z,28.14
2023-07-30T14:32:01.145Z,28.07
2023-07-30T14:34:28.175Z,28.03
2023-07-30T14:36:55.633Z,27.98
2023-07-30T14:39:22.610Z,27.89
2023-07-30T14:41:49.789Z,27.86
2023-07-30T14:44:16.899Z,27.83
2023-07-30T14:46:44.011Z,27.73
2023-07-30T14:49:11.361Z,27.59
2023-07-30T14:51:38.674Z,27.53
2023-07-30T14:54:05.887Z,27.50
2023-07-30T14:56:32.957Z,27.45
2023-07-30T14:59:00.056Z,27.36
2023-07-30T15:01:29.692Z,27.21
2023-07-30T15:03:56.863Z,27.10
2023-07-30T15:06:25.442Z,27.05
2023-07-30T15:08:52.520Z,27.00
2023-07-30T15:11:19.816Z,26.93
2023-07-30T15:13:46.879Z,26.86
2023-07-30T15:16:13.975Z,26.83
2023-07-30T15:18:43.017Z,26.76
2023-07-30T15:21:13.660Z,26.72
2023-07-30T15:23:43.045Z,26.74
2023-07-30T15:26:10.277Z,26.74
2023-07-30T15:28:37.305Z,26.74
2023-07-30T15:31:04.549Z,26.74
2023-07-30T15:33:33.765Z,26.71
2023-07-30T15:36:03.193Z,26.65
2023-07-30T15:38:30.566Z,26.61
2023-07-30T15:40:58.373Z,26.57
2023-07-30T15:43:25.885Z,26.56
2023-07-30T15:45:54.345Z,26.53
2023-07-30T15:48:22.435Z,26.52
2023-07-30T15:50:49.837Z,26.50
2023-07-30T15:53:16.912Z,26.44
2023-07-30T15:55:45.218Z,26.42
2023-07-30T15:58:12.447Z,26.45
2023-07-30T16:00:39.624Z,26.43
2023-07-30T16:03:08.614Z,26.40
2023-07-30T16:05:39.519Z,26.38
2023-07-30T16:08:06.613Z,26.38
2023-07-30T16:10:33.730Z,26.31
2023-07-30T16:13:00.790Z,26.30
2023-07-30T16:15:28.869Z,26.18
2023-07-30T16:17:56.117Z,26.11
2023-07-30T16:20:23.604Z,26.11
2023-07-30T16:22:50.892Z,26.07
2023-07-30T16:25:18.095Z,26.04
2023-07-30T16:27:45.179Z,25.99
2023-07-30T16:30:12.472Z,25.98
2023-07-30T16:32:40.028Z,25.98
2023-07-30T16:35:07.270Z,25.94
2023-07-30T16:37:34.865Z,25.90
2023-07-30T16:40:01.920Z,25.85
2023-07-30T16:42:29.158Z,25.84
2023-07-30T16:44:56.298Z,25.80
2023-07-30T16:47:23.345Z,25.77
2023-07-30T16:49:50.716Z,25.73
2023-07-30T16:52:17.987Z,25.65
2023-07-30T16:54:45.615Z,26.15
2023-07-30T16:57:12.662Z,26.76
2023-07-30T16:59:41.853Z,26.87
2023-07-30T17:02:08.844Z,26.79
2023-07-30T17:04:36.081Z,26.61
2023-07-30T17:07:03.427Z,26.41
2023-07-30T17:09:30.557Z,26.17
2023-07-30T17:11:57.546Z,25.98
2023-07-30T17:14:24.695Z,25.84
2023-07-30T17:16:51.778Z,25.71
2023-07-30T17:19:18.943Z,25.57
2023-07-30T17:21:46.700Z,25.36
2023-07-30T17:24:13.733Z,25.84
2023-07-30T17:26:41.153Z,26.43
2023-07-30T17:29:08.649Z,26.52
2023-07-30T17:31:35.760Z,26.38
2023-07-30T17:34:02.936Z,26.17
2023-07-30T17:36:31.775Z,25.95
2023-07-30T17:38:59.521Z,25.67
2023-07-30T17:41:27.781Z,25.43
2023-07-30T17:43:54.908Z,25.21
2023-07-30T17:46:22.487Z,25.04
2023-07-30T17:48:50.286Z,25.61
2023-07-30T17:51:18.555Z,26.20
2023-07-30T17:53:45.899Z,26.28
2023-07-30T17:56:13.056Z,26.13
2023-07-30T17:58:40.241Z,25.89
2023-07-30T18:01:07.403Z,25.65
2023-07-30T18:03:35.689Z,25.38
2023-07-30T18:06:03.309Z,25.16
2023-07-30T18:08:30.966Z,24.92
2023-07-30T18:10:58.139Z,25.41
2023-07-30T18:13:25.338Z,25.99
2023-07-30T18:15:52.426Z,26.05
2023-07-30T18:18:21.379Z,25.85
2023-07-30T18:20:48.609Z,25.62
2023-07-30T18:23:15.722Z,25.38
2023-07-30T18:25:42.814Z,25.17
2023-07-30T18:28:10.026Z,24.91
2023-07-30T18:30:38.087Z,24.68
2023-07-30T18:33:08.335Z,25.22
2023-07-30T18:35:37.742Z,25.85
2023-07-30T18:38:05.409Z,25.92
2023-07-30T18:40:36.175Z,25.73
2023-07-30T18:43:03.340Z,25.47
2023-07-30T18:45:36.556Z,25.19
2023-07-30T18:48:04.059Z,24.90
2023-07-30T18:50:32.276Z,24.66
2023-07-30T18:53:01.299Z,24.48
2023-07-30T18:55:28.408Z,24.28
2023-07-30T18:57:55.482Z,24.86
2023-07-30T19:00:22.492Z,25.47
2023-07-30T19:02:49.781Z,25.57
2023-07-30T19:05:17.036Z,25.41
2023-07-30T19:07:44.041Z,25.13
2023-07-30T19:10:11.475Z,24.90
2023-07-30T19:12:38.681Z,24.72
2023-07-30T19:15:06.383Z,24.51
2023-07-30T19:17:33.628Z,24.89
2023-07-30T19:20:00.935Z,25.41
2023-07-30T19:22:28.155Z,25.46
2023-07-30T19:24:55.355Z,25.25
2023-07-30T19:27:22.537Z,24.98
2023-07-30T19:29:49.762Z,24.74
2023-07-30T19:32:16.901Z,24.51
2023-07-30T19:34:43.954Z,24.25
2023-07-30T19:37:11.145Z,24.76
2023-07-30T19:39:38.218Z,25.34
2023-07-30T19:42:05.603Z,25.41
2023-07-30T19:44:32.828Z,25.21
2023-07-30T19:46:59.951Z,24.95
2023-07-30T19:49:27.512Z,24.70
2023-07-30T19:51:55.097Z,24.43
2023-07-30T19:54:22.127Z,24.84
2023-07-30T19:56:49.266Z,25.35
2023-07-30T19:59:16.412Z,25.38
2023-07-30T20:01:43.463Z,25.16
2023-07-30T20:04:10.602Z,24.88
2023-07-30T20:06:38.036Z,24.61
2023-07-30T20:09:05.263Z,24.38
2023-07-30T20:11:32.875Z,24.12
2023-07-30T20:14:00.236Z,24.63
2023-07-30T20:16:27.302Z,25.20
2023-07-30T20:18:54.424Z,25.25
2023-07-30T20:21:24.057Z,25.03
2023-07-30T20:23:52.503Z,24.76
2023-07-30T20:26:19.793Z,24.50
2023-07-30T20:28:56.826Z,24.22
2023-07-30T20:31:23.972Z,24.62
2023-07-30T20:33:51.203Z,25.09
2023-07-30T20:36:18.350Z,25.10
2023-07-30T20:38:45.352Z,24.91
2023-07-30T20:41:12.475Z,24.67
2023-07-30T20:43:43.362Z,24.44
2023-07-30T20:46:14.568Z,24.18
2023-07-30T20:48:42.689Z,24.65
2023-07-30T20:51:10.524Z,25.17
2023-07-30T20:53:37.674Z,25.16
2023-07-30T20:56:05.041Z,24.93
2023-07-30T20:58:32.358Z,24.64
2023-07-30T21:00:59.461Z,24.39
2023-07-30T21:03:26.628Z,24.14
2023-07-30T21:08:32.138Z,24.79
2023-07-30T21:10:58.673Z,25.05
2023-07-30T21:13:25.117Z,24.87
2023-07-30T21:15:51.634Z,24.62
2023-07-30T21:18:18.158Z,24.35
2023-07-30T21:20:44.611Z,24.05
2023-07-30T21:23:10.975Z,24.46
2023-07-30T21:25:37.577Z,24.96
2023-07-30T21:28:04.475Z,24.97
2023-07-30T21:30:30.982Z,24.78
2023-07-30T21:32:58.794Z,24.50
2023-07-30T21:35:25.348Z,24.24
2023-07-30T21:37:51.727Z,23.96
2023-07-30T21:40:18.089Z,24.35
2023-07-30T21:42:45.120Z,24.86
2023-07-30T21:45:11.505Z,24.89
2023-07-30T21:47:37.869Z,24.69
2023-07-30T21:50:05.632Z,24.43
2023-07-30T21:52:32.148Z,24.19
2023-07-30T21:54:58.476Z,23.91
2023-07-30T21:57:25.144Z,24.32
2023-07-30T21:59:52.275Z,24.83
2023-07-30T22:02:18.867Z,24.86
2023-07-30T22:04:45.274Z,24.66
2023-07-30T22:07:13.205Z,24.38
2023-07-30T22:09:40.532Z,24.14
2023-07-30T22:12:07.572Z,23.85
2023-07-30T22:14:34.137Z,24.25
2023-07-30T22:17:00.609Z,24.78
2023-07-30T22:19:26.893Z,24.83
2023-07-30T22:21:53.228Z,24.60
2023-07-30T22:24:19.569Z,24.27
2023-07-30T22:26:45.902Z,23.95
2023-07-30T22:29:12.304Z,23.63
2023-07-30T22:31:41.663Z,24.10
2023-07-30T22:34:08.058Z,24.65
2023-07-30T22:36:34.459Z,24.72
2023-07-30T22:39:00.862Z,24.55
2023-07-30T22:41:28.208Z,24.27
2023-07-30T22:43:56.784Z,23.97
2023-07-30T22:46:23.355Z,23.67
2023-07-30T22:48:49.823Z,24.13
2023-07-30T22:51:16.208Z,24.61
2023-07-30T22:53:42.584Z,24.49
2023-07-30T22:56:09.059Z,24.14
2023-07-30T22:58:36.158Z,23.79
2023-07-30T23:01:02.662Z,23.51
2023-07-30T23:03:29.398Z,23.23
2023-07-30T23:05:55.784Z,23.71
2023-07-30T23:08:22.190Z,24.27
2023-07-30T23:10:49.766Z,24.32
2023-07-30T23:13:16.102Z,24.14
2023-07-30T23:15:42.717Z,23.89
2023-07-30T23:18:09.138Z,23.62
2023-07-30T23:20:35.631Z,23.35
2023-07-30T23:23:02.346Z,23.81
2023-07-30T23:25:28.976Z,24.34
2023-07-30T23:27:55.474Z,24.40
2023-07-30T23:30:21.949Z,24.22
2023-07-30T23:32:48.340Z,23.98
2023-07-30T23:35:14.920Z,23.72
2023-07-30T23:37:41.254Z,23.44
2023-07-30T23:40:08.094Z,23.87
2023-07-30T23:42:34.467Z,24.38
2023-07-30T23:45:00.932Z,24.39
2023-07-30T23:47:27.326Z,24.20
2023-07-30T23:49:53.817Z,23.94
2023-07-30T23:52:20.242Z,23.68
2023-07-30T23:54:46.592Z,23.42
2023-07-30T23:57:12.894Z,23.87
2023-07-30T23:59:39.248Z,24.39
